sensor_id;sensor_type;location;lat;lon;timestamp;P1;durP1;ratioP1;P2;durP2;ratioP2
9563;SDS011;4820;50.870;4.702;2024-03-25T00:00:16;8.43;;;5.65;;
9563;SDS011;4820;50.870;4.702;2024-03-25T00:02:43;7.97;;;5.18;;
9563;SDS011;4820;50.870;4.702;2024-03-25T00:05:09;8.80;;;5.63;;
9563;SDS011;4820;50.870;4.702;2024-03-25T00:07:37;8.95;;;5.35;;
9563;SDS011;4820;50.870;4.702;2024-03-25T00:10:04;6.70;;;5.30;;
9563;SDS011;4820;50.870;4.702;2024-03-25T00:12:35;7.38;;;5.20;;
9563;SDS011;4820;50.870;4.702;2024-03-25T00:15:00;6.32;;;5.57;;
9563;SDS011;4820;50.870;4.702;2024-03-25T00:17:26;7.70;;;5.93;;
9563;SDS011;4820;50.870;4.702;2024-03-25T00:19:52;7.35;;;5.55;;
9563;SDS011;4820;50.870;4.702;2024-03-25T00:22:18;6.43;;;5.32;;
9563;SDS011;4820;50.870;4.702;2024-03-25T00:24:47;10.05;;;6.03;;
9563;SDS011;4820;50.870;4.702;2024-03-25T00:27:14;10.57;;;5.90;;
9563;SDS011;4820;50.870;4.702;2024-03-25T00:29:40;6.30;;;5.63;;
9563;SDS011;4820;50.870;4.702;2024-03-25T00:32:06;7.03;;;5.93;;
9563;SDS011;4820;50.870;4.702;2024-03-25T00:34:32;7.75;;;5.60;;
9563;SDS011;4820;50.870;4.702;2024-03-25T00:36:59;8.07;;;5.97;;
9563;SDS011;4820;50.870;4.702;2024-03-25T00:39:26;6.68;;;5.60;;
9563;SDS011;4820;50.870;4.702;2024-03-25T00:41:52;8.90;;;5.97;;
9563;SDS011;4820;50.870;4.702;2024-03-25T00:44:19;6.53;;;5.60;;
9563;SDS011;4820;50.870;4.702;2024-03-25T00:46:44;6.32;;;5.65;;
9563;SDS011;4820;50.870;4.702;2024-03-25T00:49:12;6.57;;;5.80;;
9563;SDS011;4820;50.870;4.702;2024-03-25T00:51:37;7.13;;;5.80;;
9563;SDS011;4820;50.870;4.702;2024-03-25T00:54:03;6.68;;;5.97;;
9563;SDS011;4820;50.870;4.702;2024-03-25T00:56:30;6.82;;;5.70;;
9563;SDS011;4820;50.870;4.702;2024-03-25T00:58:56;8.80;;;5.68;;
9563;SDS011;4820;50.870;4.702;2024-03-25T01:01:23;8.80;;;5.63;;
9563;SDS011;4820;50.870;4.702;2024-03-25T01:03:50;8.25;;;5.80;;
9563;SDS011;4820;50.870;4.702;2024-03-25T01:06:16;6.55;;;5.68;;
9563;SDS011;4820;50.870;4.702;2024-03-25T01:08:42;7.22;;;5.15;;
9563;SDS011;4820;50.870;4.702;2024-03-25T01:11:08;8.02;;;5.13;;
9563;SDS011;4820;50.870;4.702;2024-03-25T01:13:33;8.65;;;5.50;;
9563;SDS011;4820;50.870;4.702;2024-03-25T01:15:59;7.38;;;5.18;;
9563;SDS011;4820;50.870;4.702;2024-03-25T01:18:25;6.75;;;5.38;;
9563;SDS011;4820;50.870;4.702;2024-03-25T01:20:50;7.95;;;5.95;;
9563;SDS011;4820;50.870;4.702;2024-03-25T01:23:16;7.35;;;5.60;;
9563;SDS011;4820;50.870;4.702;2024-03-25T01:25:42;6.50;;;5.22;;
9563;SDS011;4820;50.870;4.702;2024-03-25T01:28:07;5.90;;;4.93;;
9563;SDS011;4820;50.870;4.702;2024-03-25T01:30:34;7.10;;;5.78;;
9563;SDS011;4820;50.870;4.702;2024-03-25T01:33:04;6.63;;;5.20;;
9563;SDS011;4820;50.870;4.702;2024-03-25T01:35:30;7.63;;;5.45;;
9563;SDS011;4820;50.870;4.702;2024-03-25T01:37:56;8.82;;;5.78;;
9563;SDS011;4820;50.870;4.702;2024-03-25T01:40:24;6.28;;;5.20;;
9563;SDS011;4820;50.870;4.702;2024-03-25T01:43:00;6.95;;;5.65;;
9563;SDS011;4820;50.870;4.702;2024-03-25T01:45:27;7.47;;;5.38;;
9563;SDS011;4820;50.870;4.702;2024-03-25T01:47:59;7.90;;;5.65;;
9563;SDS011;4820;50.870;4.702;2024-03-25T01:50:27;6.65;;;5.10;;
9563;SDS011;4820;50.870;4.702;2024-03-25T01:52:54;6.47;;;5.28;;
9563;SDS011;4820;50.870;4.702;2024-03-25T01:55:21;5.50;;;4.95;;
9563;SDS011;4820;50.870;4.702;2024-03-25T01:57:51;5.80;;;4.63;;
9563;SDS011;4820;50.870;4.702;2024-03-25T02:00:17;6.07;;;5.10;;
9563;SDS011;4820;50.870;4.702;2024-03-25T02:02:44;7.55;;;5.20;;
9563;SDS011;4820;50.870;4.702;2024-03-25T02:05:11;7.53;;;4.95;;
9563;SDS011;4820;50.870;4.702;2024-03-25T02:07:38;6.93;;;5.35;;
9563;SDS011;4820;50.870;4.702;2024-03-25T02:10:07;7.20;;;5.40;;
9563;SDS011;4820;50.870;4.702;2024-03-25T02:12:42;7.63;;;4.80;;
9563;SDS011;4820;50.870;4.702;2024-03-25T02:15:09;6.80;;;5.20;;
9563;SDS011;4820;50.870;4.702;2024-03-25T02:17:36;8.77;;;6.20;;
9563;SDS011;4820;50.870;4.702;2024-03-25T02:20:04;8.68;;;5.72;;
9563;SDS011;4820;50.870;4.702;2024-03-25T02:22:34;6.40;;;5.28;;
9563;SDS011;4820;50.870;4.702;2024-03-25T02:25:07;7.63;;;5.43;;
9563;SDS011;4820;50.870;4.702;2024-03-25T02:27:34;6.38;;;5.32;;
9563;SDS011;4820;50.870;4.702;2024-03-25T02:30:10;7.25;;;5.60;;
9563;SDS011;4820;50.870;4.702;2024-03-25T02:32:38;6.10;;;5.45;;
9563;SDS011;4820;50.870;4.702;2024-03-25T02:35:13;7.10;;;4.93;;
9563;SDS011;4820;50.870;4.702;2024-03-25T02:37:41;7.18;;;4.80;;
9563;SDS011;4820;50.870;4.702;2024-03-25T02:42:36;5.50;;;4.15;;
9563;SDS011;4820;50.870;4.702;2024-03-25T02:45:05;5.03;;;4.38;;
9563;SDS011;4820;50.870;4.702;2024-03-25T02:47:31;5.57;;;4.15;;
9563;SDS011;4820;50.870;4.702;2024-03-25T02:49:57;5.50;;;4.82;;
9563;SDS011;4820;50.870;4.702;2024-03-25T02:52:22;5.18;;;4.55;;
9563;SDS011;4820;50.870;4.702;2024-03-25T02:54:48;6.57;;;4.78;;
9563;SDS011;4820;50.870;4.702;2024-03-25T02:57:14;6.75;;;5.28;;
9563;SDS011;4820;50.870;4.702;2024-03-25T02:59:40;6.00;;;4.90;;
9563;SDS011;4820;50.870;4.702;2024-03-25T03:02:05;7.80;;;5.28;;
9563;SDS011;4820;50.870;4.702;2024-03-25T03:04:31;7.10;;;5.72;;
9563;SDS011;4820;50.870;4.702;2024-03-25T03:06:59;9.65;;;5.15;;
9563;SDS011;4820;50.870;4.702;2024-03-25T03:09:24;8.32;;;5.53;;
9563;SDS011;4820;50.870;4.702;2024-03-25T03:11:50;5.82;;;5.20;;
9563;SDS011;4820;50.870;4.702;2024-03-25T03:14:16;6.75;;;5.38;;
9563;SDS011;4820;50.870;4.702;2024-03-25T03:16:42;7.43;;;5.88;;
9563;SDS011;4820;50.870;4.702;2024-03-25T03:19:08;6.20;;;5.15;;
9563;SDS011;4820;50.870;4.702;2024-03-25T03:21:33;7.93;;;5.50;;
9563;SDS011;4820;50.870;4.702;2024-03-25T03:24:01;6.63;;;5.55;;
9563;SDS011;4820;50.870;4.702;2024-03-25T03:26:28;9.43;;;5.65;;
9563;SDS011;4820;50.870;4.702;2024-03-25T03:28:54;6.13;;;5.47;;
9563;SDS011;4820;50.870;4.702;2024-03-25T03:31:20;5.72;;;5.00;;
9563;SDS011;4820;50.870;4.702;2024-03-25T03:33:47;7.57;;;5.05;;
9563;SDS011;4820;50.870;4.702;2024-03-25T03:36:15;7.70;;;5.65;;
9563;SDS011;4820;50.870;4.702;2024-03-25T03:38:41;5.70;;;5.10;;
9563;SDS011;4820;50.870;4.702;2024-03-25T03:41:07;6.22;;;5.47;;
9563;SDS011;4820;50.870;4.702;2024-03-25T03:43:33;5.40;;;4.90;;
9563;SDS011;4820;50.870;4.702;2024-03-25T03:45:59;6.95;;;5.20;;
9563;SDS011;4820;50.870;4.702;2024-03-25T03:48:25;7.25;;;5.43;;
9563;SDS011;4820;50.870;4.702;2024-03-25T03:50:50;8.10;;;4.90;;
9563;SDS011;4820;50.870;4.702;2024-03-25T03:53:16;8.02;;;4.90;;
9563;SDS011;4820;50.870;4.702;2024-03-25T03:55:42;6.75;;;5.30;;
9563;SDS011;4820;50.870;4.702;2024-03-25T03:58:18;7.68;;;5.30;;
9563;SDS011;4820;50.870;4.702;2024-03-25T04:00:44;5.63;;;5.03;;
9563;SDS011;4820;50.870;4.702;2024-03-25T04:03:11;7.82;;;5.20;;
9563;SDS011;4820;50.870;4.702;2024-03-25T04:05:36;7.30;;;5.03;;
9563;SDS011;4820;50.870;4.702;2024-03-25T04:08:02;7.68;;;5.38;;
9563;SDS011;4820;50.870;4.702;2024-03-25T04:10:28;7.50;;;5.03;;
9563;SDS011;4820;50.870;4.702;2024-03-25T04:12:54;5.60;;;5.00;;
9563;SDS011;4820;50.870;4.702;2024-03-25T04:15:21;7.30;;;5.63;;
9563;SDS011;4820;50.870;4.702;2024-03-25T04:17:47;6.68;;;5.07;;
9563;SDS011;4820;50.870;4.702;2024-03-25T04:20:14;6.72;;;5.43;;
9563;SDS011;4820;50.870;4.702;2024-03-25T04:22:41;7.78;;;5.55;;
9563;SDS011;4820;50.870;4.702;2024-03-25T04:25:08;6.28;;;5.38;;
9563;SDS011;4820;50.870;4.702;2024-03-25T04:27:38;7.13;;;5.10;;
9563;SDS011;4820;50.870;4.702;2024-03-25T04:30:05;6.20;;;5.00;;
9563;SDS011;4820;50.870;4.702;2024-03-25T04:32:32;7.15;;;5.10;;
9563;SDS011;4820;50.870;4.702;2024-03-25T04:34:58;6.47;;;5.10;;
9563;SDS011;4820;50.870;4.702;2024-03-25T04:37:24;6.07;;;4.75;;
9563;SDS011;4820;50.870;4.702;2024-03-25T04:39:50;8.60;;;5.13;;
9563;SDS011;4820;50.870;4.702;2024-03-25T04:42:16;5.97;;;4.90;;
9563;SDS011;4820;50.870;4.702;2024-03-25T04:44:41;7.63;;;4.85;;
9563;SDS011;4820;50.870;4.702;2024-03-25T04:47:08;6.57;;;4.95;;
9563;SDS011;4820;50.870;4.702;2024-03-25T04:49:34;8.85;;;4.68;;
9563;SDS011;4820;50.870;4.702;2024-03-25T04:51:59;6.95;;;4.95;;
9563;SDS011;4820;50.870;4.702;2024-03-25T04:54:25;8.23;;;5.15;;
9563;SDS011;4820;50.870;4.702;2024-03-25T04:56:51;6.45;;;4.72;;
9563;SDS011;4820;50.870;4.702;2024-03-25T04:59:17;7.70;;;5.30;;
9563;SDS011;4820;50.870;4.702;2024-03-25T05:01:42;6.85;;;4.88;;
9563;SDS011;4820;50.870;4.702;2024-03-25T05:04:08;6.35;;;5.05;;
9563;SDS011;4820;50.870;4.702;2024-03-25T05:06:34;7.40;;;4.75;;
9563;SDS011;4820;50.870;4.702;2024-03-25T05:09:00;9.48;;;5.00;;
9563;SDS011;4820;50.870;4.702;2024-03-25T05:11:26;7.32;;;5.25;;
9563;SDS011;4820;50.870;4.702;2024-03-25T05:13:52;7.40;;;5.65;;
9563;SDS011;4820;50.870;4.702;2024-03-25T05:16:18;8.45;;;5.68;;
9563;SDS011;4820;50.870;4.702;2024-03-25T05:18:43;10.43;;;6.35;;
9563;SDS011;4820;50.870;4.702;2024-03-25T05:21:09;9.07;;;6.30;;
9563;SDS011;4820;50.870;4.702;2024-03-25T05:23:35;10.65;;;7.15;;
9563;SDS011;4820;50.870;4.702;2024-03-25T05:26:01;10.13;;;7.28;;
9563;SDS011;4820;50.870;4.702;2024-03-25T05:28:26;10.85;;;6.00;;
9563;SDS011;4820;50.870;4.702;2024-03-25T05:30:52;7.25;;;5.50;;
9563;SDS011;4820;50.870;4.702;2024-03-25T05:33:18;9.48;;;5.55;;
9563;SDS011;4820;50.870;4.702;2024-03-25T05:35:44;9.13;;;5.38;;
9563;SDS011;4820;50.870;4.702;2024-03-25T05:38:09;7.32;;;5.10;;
9563;SDS011;4820;50.870;4.702;2024-03-25T05:40:35;8.10;;;5.43;;
9563;SDS011;4820;50.870;4.702;2024-03-25T05:43:01;7.45;;;5.13;;
9563;SDS011;4820;50.870;4.702;2024-03-25T05:45:27;6.47;;;5.43;;
9563;SDS011;4820;50.870;4.702;2024-03-25T05:47:53;8.32;;;5.75;;
9563;SDS011;4820;50.870;4.702;2024-03-25T05:50:18;7.28;;;5.63;;
9563;SDS011;4820;50.870;4.702;2024-03-25T05:52:44;7.85;;;5.78;;
9563;SDS011;4820;50.870;4.702;2024-03-25T05:55:10;8.35;;;6.13;;
9563;SDS011;4820;50.870;4.702;2024-03-25T05:57:36;9.43;;;5.82;;
9563;SDS011;4820;50.870;4.702;2024-03-25T06:00:02;7.97;;;6.00;;
9563;SDS011;4820;50.870;4.702;2024-03-25T06:02:28;7.07;;;5.25;;
9563;SDS011;4820;50.870;4.702;2024-03-25T06:04:55;7.15;;;5.70;;
9563;SDS011;4820;50.870;4.702;2024-03-25T06:07:22;7.80;;;5.78;;
9563;SDS011;4820;50.870;4.702;2024-03-25T06:09:47;8.68;;;5.78;;
9563;SDS011;4820;50.870;4.702;2024-03-25T06:12:13;8.30;;;6.25;;
9563;SDS011;4820;50.870;4.702;2024-03-25T06:14:39;8.82;;;6.43;;
9563;SDS011;4820;50.870;4.702;2024-03-25T06:17:06;7.88;;;6.45;;
9563;SDS011;4820;50.870;4.702;2024-03-25T06:19:32;9.63;;;6.32;;
9563;SDS011;4820;50.870;4.702;2024-03-25T06:21:58;8.40;;;6.03;;
9563;SDS011;4820;50.870;4.702;2024-03-25T06:24:24;6.88;;;5.82;;
9563;SDS011;4820;50.870;4.702;2024-03-25T06:26:49;9.18;;;5.97;;
9563;SDS011;4820;50.870;4.702;2024-03-25T06:29:16;7.35;;;6.32;;
9563;SDS011;4820;50.870;4.702;2024-03-25T06:31:42;11.13;;;6.88;;
9563;SDS011;4820;50.870;4.702;2024-03-25T06:34:26;10.48;;;6.40;;
9563;SDS011;4820;50.870;4.702;2024-03-25T06:36:52;9.45;;;6.70;;
9563;SDS011;4820;50.870;4.702;2024-03-25T06:39:18;8.77;;;7.13;;
9563;SDS011;4820;50.870;4.702;2024-03-25T06:41:43;12.27;;;7.28;;
9563;SDS011;4820;50.870;4.702;2024-03-25T06:44:09;9.57;;;6.55;;
9563;SDS011;4820;50.870;4.702;2024-03-25T06:46:35;10.70;;;6.88;;
9563;SDS011;4820;50.870;4.702;2024-03-25T06:49:01;9.43;;;7.68;;
9563;SDS011;4820;50.870;4.702;2024-03-25T06:51:27;9.48;;;6.80;;
9563;SDS011;4820;50.870;4.702;2024-03-25T06:53:53;14.52;;;7.68;;
9563;SDS011;4820;50.870;4.702;2024-03-25T06:56:19;12.77;;;7.38;;
9563;SDS011;4820;50.870;4.702;2024-03-25T06:58:45;9.63;;;7.13;;
9563;SDS011;4820;50.870;4.702;2024-03-25T07:01:12;11.60;;;8.10;;
9563;SDS011;4820;50.870;4.702;2024-03-25T07:03:37;8.65;;;6.93;;
9563;SDS011;4820;50.870;4.702;2024-03-25T07:06:05;12.20;;;8.07;;
9563;SDS011;4820;50.870;4.702;2024-03-25T07:08:31;10.93;;;7.65;;
9563;SDS011;4820;50.870;4.702;2024-03-25T07:10:57;12.30;;;8.45;;
9563;SDS011;4820;50.870;4.702;2024-03-25T07:13:23;13.90;;;9.57;;
9563;SDS011;4820;50.870;4.702;2024-03-25T07:15:50;13.50;;;8.95;;
9563;SDS011;4820;50.870;4.702;2024-03-25T07:18:16;12.57;;;8.45;;
9563;SDS011;4820;50.870;4.702;2024-03-25T07:20:43;11.40;;;8.38;;
9563;SDS011;4820;50.870;4.702;2024-03-25T07:23:09;11.38;;;7.90;;
9563;SDS011;4820;50.870;4.702;2024-03-25T07:25:35;10.18;;;8.10;;
9563;SDS011;4820;50.870;4.702;2024-03-25T07:28:01;11.82;;;7.78;;
9563;SDS011;4820;50.870;4.702;2024-03-25T07:30:27;11.50;;;7.20;;
9563;SDS011;4820;50.870;4.702;2024-03-25T07:32:56;11.85;;;8.25;;
9563;SDS011;4820;50.870;4.702;2024-03-25T07:35:23;15.52;;;8.68;;
9563;SDS011;4820;50.870;4.702;2024-03-25T07:37:49;15.25;;;9.07;;
9563;SDS011;4820;50.870;4.702;2024-03-25T07:40:19;13.30;;;8.07;;
9563;SDS011;4820;50.870;4.702;2024-03-25T07:42:46;14.77;;;8.52;;
9563;SDS011;4820;50.870;4.702;2024-03-25T07:45:12;12.60;;;8.07;;
9563;SDS011;4820;50.870;4.702;2024-03-25T07:47:38;14.30;;;8.10;;
9563;SDS011;4820;50.870;4.702;2024-03-25T07:50:03;11.82;;;7.22;;
9563;SDS011;4820;50.870;4.702;2024-03-25T07:52:31;15.02;;;7.18;;
9563;SDS011;4820;50.870;4.702;2024-03-25T07:54:58;13.00;;;7.30;;
9563;SDS011;4820;50.870;4.702;2024-03-25T07:57:24;12.30;;;6.63;;
9563;SDS011;4820;50.870;4.702;2024-03-25T07:59:50;14.23;;;7.07;;
9563;SDS011;4820;50.870;4.702;2024-03-25T08:02:15;15.68;;;6.85;;
9563;SDS011;4820;50.870;4.702;2024-03-25T08:04:41;13.45;;;6.97;;
9563;SDS011;4820;50.870;4.702;2024-03-25T08:07:08;14.40;;;7.03;;
9563;SDS011;4820;50.870;4.702;2024-03-25T08:09:33;9.40;;;6.10;;
9563;SDS011;4820;50.870;4.702;2024-03-25T08:11:59;11.15;;;6.45;;
9563;SDS011;4820;50.870;4.702;2024-03-25T08:14:25;11.70;;;6.60;;
9563;SDS011;4820;50.870;4.702;2024-03-25T08:16:50;10.75;;;6.60;;
9563;SDS011;4820;50.870;4.702;2024-03-25T08:19:16;10.02;;;6.22;;
9563;SDS011;4820;50.870;4.702;2024-03-25T08:21:41;13.60;;;6.53;;
9563;SDS011;4820;50.870;4.702;2024-03-25T08:24:08;10.55;;;6.15;;
9563;SDS011;4820;50.870;4.702;2024-03-25T08:26:34;14.32;;;6.68;;
9563;SDS011;4820;50.870;4.702;2024-03-25T08:28:59;13.07;;;6.53;;
9563;SDS011;4820;50.870;4.702;2024-03-25T08:31:25;15.18;;;7.20;;
9563;SDS011;4820;50.870;4.702;2024-03-25T08:33:51;11.00;;;6.35;;
9563;SDS011;4820;50.870;4.702;2024-03-25T08:36:17;11.45;;;6.93;;
9563;SDS011;4820;50.870;4.702;2024-03-25T08:38:46;10.10;;;6.57;;
9563;SDS011;4820;50.870;4.702;2024-03-25T08:41:11;9.20;;;5.78;;
9563;SDS011;4820;50.870;4.702;2024-03-25T08:43:37;11.68;;;6.57;;
9563;SDS011;4820;50.870;4.702;2024-03-25T08:46:02;11.70;;;6.47;;
9563;SDS011;4820;50.870;4.702;2024-03-25T08:48:28;23.55;;;8.02;;
9563;SDS011;4820;50.870;4.702;2024-03-25T08:50:54;15.85;;;7.30;;
9563;SDS011;4820;50.870;4.702;2024-03-25T08:53:22;13.82;;;6.30;;
9563;SDS011;4820;50.870;4.702;2024-03-25T08:55:48;9.70;;;6.07;;
9563;SDS011;4820;50.870;4.702;2024-03-25T08:58:14;12.73;;;6.07;;
9563;SDS011;4820;50.870;4.702;2024-03-25T09:00:40;14.48;;;6.07;;
9563;SDS011;4820;50.870;4.702;2024-03-25T09:03:06;9.23;;;5.30;;
9563;SDS011;4820;50.870;4.702;2024-03-25T09:05:34;9.60;;;5.38;;
9563;SDS011;4820;50.870;4.702;2024-03-25T09:08:00;8.30;;;5.10;;
9563;SDS011;4820;50.870;4.702;2024-03-25T09:10:26;8.68;;;4.40;;
9563;SDS011;4820;50.870;4.702;2024-03-25T09:13:10;8.73;;;5.00;;
9563;SDS011;4820;50.870;4.702;2024-03-25T09:15:36;11.50;;;5.13;;
9563;SDS011;4820;50.870;4.702;2024-03-25T09:18:02;8.55;;;5.65;;
9563;SDS011;4820;50.870;4.702;2024-03-25T09:20:28;8.00;;;5.00;;
9563;SDS011;4820;50.870;4.702;2024-03-25T09:22:54;11.00;;;4.95;;
9563;SDS011;4820;50.870;4.702;2024-03-25T09:25:20;7.50;;;4.63;;
9563;SDS011;4820;50.870;4.702;2024-03-25T09:27:46;10.50;;;4.72;;
9563;SDS011;4820;50.870;4.702;2024-03-25T09:30:17;22.05;;;5.55;;
9563;SDS011;4820;50.870;4.702;2024-03-25T09:32:46;10.30;;;4.50;;
9563;SDS011;4820;50.870;4.702;2024-03-25T09:35:12;9.63;;;4.13;;
9563;SDS011;4820;50.870;4.702;2024-03-25T09:37:38;8.45;;;4.10;;
9563;SDS011;4820;50.870;4.702;2024-03-25T09:40:05;8.25;;;3.80;;
9563;SDS011;4820;50.870;4.702;2024-03-25T09:42:36;8.45;;;4.38;;
9563;SDS011;4820;50.870;4.702;2024-03-25T09:45:17;11.13;;;4.15;;
9563;SDS011;4820;50.870;4.702;2024-03-25T09:47:46;7.13;;;4.10;;
9563;SDS011;4820;50.870;4.702;2024-03-25T09:50:13;5.57;;;3.45;;
9563;SDS011;4820;50.870;4.702;2024-03-25T09:52:45;8.23;;;4.20;;
9563;SDS011;4820;50.870;4.702;2024-03-25T09:55:11;6.72;;;3.78;;
9563;SDS011;4820;50.870;4.702;2024-03-25T09:57:36;9.80;;;4.20;;
9563;SDS011;4820;50.870;4.702;2024-03-25T10:00:04;5.30;;;3.20;;
9563;SDS011;4820;50.870;4.702;2024-03-25T10:02:32;6.85;;;3.88;;
9563;SDS011;4820;50.870;4.702;2024-03-25T10:05:00;8.00;;;3.58;;
9563;SDS011;4820;50.870;4.702;2024-03-25T10:07:28;10.55;;;3.97;;
9563;SDS011;4820;50.870;4.702;2024-03-25T10:09:54;9.05;;;3.95;;
9563;SDS011;4820;50.870;4.702;2024-03-25T10:12:21;9.05;;;3.97;;
9563;SDS011;4820;50.870;4.702;2024-03-25T10:14:47;11.90;;;4.13;;
9563;SDS011;4820;50.870;4.702;2024-03-25T10:17:13;6.90;;;3.95;;
9563;SDS011;4820;50.870;4.702;2024-03-25T10:19:39;8.80;;;4.20;;
9563;SDS011;4820;50.870;4.702;2024-03-25T10:22:05;9.35;;;3.58;;
9563;SDS011;4820;50.870;4.702;2024-03-25T10:24:44;9.50;;;4.10;;
9563;SDS011;4820;50.870;4.702;2024-03-25T10:27:17;7.35;;;3.88;;
9563;SDS011;4820;50.870;4.702;2024-03-25T10:29:52;9.35;;;4.30;;
9563;SDS011;4820;50.870;4.702;2024-03-25T10:32:20;8.70;;;4.50;;
9563;SDS011;4820;50.870;4.702;2024-03-25T10:34:47;8.18;;;3.65;;
9563;SDS011;4820;50.870;4.702;2024-03-25T10:37:13;8.52;;;3.80;;
9563;SDS011;4820;50.870;4.702;2024-03-25T10:39:49;6.25;;;2.95;;
9563;SDS011;4820;50.870;4.702;2024-03-25T10:42:20;6.28;;;3.25;;
9563;SDS011;4820;50.870;4.702;2024-03-25T10:44:49;8.02;;;3.13;;
9563;SDS011;4820;50.870;4.702;2024-03-25T10:47:19;8.25;;;3.30;;
9563;SDS011;4820;50.870;4.702;2024-03-25T10:49:48;6.38;;;2.63;;
9563;SDS011;4820;50.870;4.702;2024-03-25T10:52:17;9.23;;;3.28;;
9563;SDS011;4820;50.870;4.702;2024-03-25T10:54:44;7.00;;;2.92;;
9563;SDS011;4820;50.870;4.702;2024-03-25T10:57:12;4.60;;;2.47;;
9563;SDS011;4820;50.870;4.702;2024-03-25T10:59:39;5.03;;;2.50;;
9563;SDS011;4820;50.870;4.702;2024-03-25T11:02:12;6.30;;;3.10;;
9563;SDS011;4820;50.870;4.702;2024-03-25T11:04:39;7.70;;;3.33;;
9563;SDS011;4820;50.870;4.702;2024-03-25T11:07:08;5.80;;;2.80;;
9563;SDS011;4820;50.870;4.702;2024-03-25T11:09:37;4.85;;;2.78;;
9563;SDS011;4820;50.870;4.702;2024-03-25T11:12:04;7.25;;;2.90;;
9563;SDS011;4820;50.870;4.702;2024-03-25T11:14:30;4.15;;;2.80;;
9563;SDS011;4820;50.870;4.702;2024-03-25T11:17:00;5.43;;;2.72;;
9563;SDS011;4820;50.870;4.702;2024-03-25T11:19:27;6.18;;;2.70;;
9563;SDS011;4820;50.870;4.702;2024-03-25T11:21:54;5.28;;;3.80;;
9563;SDS011;4820;50.870;4.702;2024-03-25T11:24:31;6.47;;;2.47;;
9563;SDS011;4820;50.870;4.702;2024-03-25T11:26:56;3.75;;;2.17;;
9563;SDS011;4820;50.870;4.702;2024-03-25T11:29:22;5.60;;;2.00;;
9563;SDS011;4820;50.870;4.702;2024-03-25T11:31:51;5.50;;;2.38;;
9563;SDS011;4820;50.870;4.702;2024-03-25T11:34:18;5.20;;;2.17;;
9563;SDS011;4820;50.870;4.702;2024-03-25T11:36:44;5.72;;;2.67;;
9563;SDS011;4820;50.870;4.702;2024-03-25T11:39:12;3.65;;;2.28;;
9563;SDS011;4820;50.870;4.702;2024-03-25T11:41:44;11.60;;;2.85;;
9563;SDS011;4820;50.870;4.702;2024-03-25T11:44:10;7.35;;;2.50;;
9563;SDS011;4820;50.870;4.702;2024-03-25T11:46:40;4.18;;;2.20;;
9563;SDS011;4820;50.870;4.702;2024-03-25T11:49:06;4.47;;;2.67;;
9563;SDS011;4820;50.870;4.702;2024-03-25T11:51:34;3.17;;;2.10;;
9563;SDS011;4820;50.870;4.702;2024-03-25T11:54:02;10.50;;;2.45;;
9563;SDS011;4820;50.870;4.702;2024-03-25T11:56:29;5.30;;;2.47;;
9563;SDS011;4820;50.870;4.702;2024-03-25T11:58:57;4.63;;;2.38;;
9563;SDS011;4820;50.870;4.702;2024-03-25T12:01:25;6.13;;;2.40;;
9563;SDS011;4820;50.870;4.702;2024-03-25T12:03:51;4.32;;;2.35;;
9563;SDS011;4820;50.870;4.702;2024-03-25T12:06:18;5.15;;;2.60;;
9563;SDS011;4820;50.870;4.702;2024-03-25T12:08:44;3.47;;;2.25;;
9563;SDS011;4820;50.870;4.702;2024-03-25T12:11:29;8.02;;;2.30;;
9563;SDS011;4820;50.870;4.702;2024-03-25T12:13:56;3.63;;;2.20;;
9563;SDS011;4820;50.870;4.702;2024-03-25T12:16:23;6.88;;;3.22;;
9563;SDS011;4820;50.870;4.702;2024-03-25T12:18:49;4.85;;;2.60;;
9563;SDS011;4820;50.870;4.702;2024-03-25T12:21:15;5.88;;;2.75;;
9563;SDS011;4820;50.870;4.702;2024-03-25T12:23:42;5.40;;;2.20;;
9563;SDS011;4820;50.870;4.702;2024-03-25T12:26:08;3.33;;;2.30;;
9563;SDS011;4820;50.870;4.702;2024-03-25T12:28:34;5.82;;;2.20;;
9563;SDS011;4820;50.870;4.702;2024-03-25T12:31:02;5.15;;;2.50;;
9563;SDS011;4820;50.870;4.702;2024-03-25T12:33:42;4.18;;;2.10;;
9563;SDS011;4820;50.870;4.702;2024-03-25T12:36:14;3.70;;;2.08;;
9563;SDS011;4820;50.870;4.702;2024-03-25T12:38:40;8.20;;;2.40;;
9563;SDS011;4820;50.870;4.702;2024-03-25T12:41:08;3.83;;;2.13;;
9563;SDS011;4820;50.870;4.702;2024-03-25T12:43:35;5.20;;;2.45;;
9563;SDS011;4820;50.870;4.702;2024-03-25T12:46:01;6.70;;;2.58;;
9563;SDS011;4820;50.870;4.702;2024-03-25T12:48:30;5.18;;;2.30;;
9563;SDS011;4820;50.870;4.702;2024-03-25T12:50:56;2.80;;;2.17;;
9563;SDS011;4820;50.870;4.702;2024-03-25T12:53:22;5.57;;;2.47;;
9563;SDS011;4820;50.870;4.702;2024-03-25T12:55:48;12.85;;;3.00;;
9563;SDS011;4820;50.870;4.702;2024-03-25T12:58:15;4.13;;;2.33;;
9563;SDS011;4820;50.870;4.702;2024-03-25T13:00:40;3.85;;;2.15;;
9563;SDS011;4820;50.870;4.702;2024-03-25T13:03:07;3.97;;;2.10;;
9563;SDS011;4820;50.870;4.702;2024-03-25T13:05:34;5.30;;;2.45;;
9563;SDS011;4820;50.870;4.702;2024-03-25T13:08:00;3.92;;;2.22;;
9563;SDS011;4820;50.870;4.702;2024-03-25T13:10:27;4.72;;;2.30;;
9563;SDS011;4820;50.870;4.702;2024-03-25T13:12:54;3.78;;;2.30;;
9563;SDS011;4820;50.870;4.702;2024-03-25T13:15:20;3.20;;;2.25;;
9563;SDS011;4820;50.870;4.702;2024-03-25T13:17:46;4.15;;;2.40;;
9563;SDS011;4820;50.870;4.702;2024-03-25T13:20:12;4.10;;;2.25;;
9563;SDS011;4820;50.870;4.702;2024-03-25T13:22:38;5.97;;;2.38;;
9563;SDS011;4820;50.870;4.702;2024-03-25T13:25:05;4.68;;;2.28;;
9563;SDS011;4820;50.870;4.702;2024-03-25T13:27:31;6.57;;;2.83;;
9563;SDS011;4820;50.870;4.702;2024-03-25T13:29:58;4.95;;;2.47;;
9563;SDS011;4820;50.870;4.702;2024-03-25T13:32:24;5.13;;;2.00;;
9563;SDS011;4820;50.870;4.702;2024-03-25T13:34:50;9.68;;;2.40;;
9563;SDS011;4820;50.870;4.702;2024-03-25T13:37:17;8.40;;;3.33;;
9563;SDS011;4820;50.870;4.702;2024-03-25T13:39:42;5.07;;;2.40;;
9563;SDS011;4820;50.870;4.702;2024-03-25T13:42:10;4.38;;;2.13;;
9563;SDS011;4820;50.870;4.702;2024-03-25T13:44:36;4.85;;;3.28;;
9563;SDS011;4820;50.870;4.702;2024-03-25T13:47:01;5.88;;;2.05;;
9563;SDS011;4820;50.870;4.702;2024-03-25T13:49:28;6.28;;;2.05;;
9563;SDS011;4820;50.870;4.702;2024-03-25T13:51:57;4.03;;;2.33;;
9563;SDS011;4820;50.870;4.702;2024-03-25T13:54:28;6.68;;;2.40;;
9563;SDS011;4820;50.870;4.702;2024-03-25T13:57:02;7.32;;;2.55;;
9563;SDS011;4820;50.870;4.702;2024-03-25T13:59:28;12.05;;;2.83;;
9563;SDS011;4820;50.870;4.702;2024-03-25T14:01:54;3.20;;;2.10;;
9563;SDS011;4820;50.870;4.702;2024-03-25T14:04:20;9.30;;;2.33;;
9563;SDS011;4820;50.870;4.702;2024-03-25T14:06:45;3.50;;;1.88;;
9563;SDS011;4820;50.870;4.702;2024-03-25T14:09:23;3.75;;;2.00;;
9563;SDS011;4820;50.870;4.702;2024-03-25T14:11:49;2.88;;;1.77;;
9563;SDS011;4820;50.870;4.702;2024-03-25T14:14:15;2.00;;;1.80;;
9563;SDS011;4820;50.870;4.702;2024-03-25T14:16:41;6.57;;;2.13;;
9563;SDS011;4820;50.870;4.702;2024-03-25T14:19:06;3.28;;;1.75;;
9563;SDS011;4820;50.870;4.702;2024-03-25T14:21:32;6.00;;;2.10;;
9563;SDS011;4820;50.870;4.702;2024-03-25T14:23:58;5.18;;;2.08;;
9563;SDS011;4820;50.870;4.702;2024-03-25T14:26:24;2.95;;;1.92;;
9563;SDS011;4820;50.870;4.702;2024-03-25T14:28:49;4.35;;;1.80;;
9563;SDS011;4820;50.870;4.702;2024-03-25T14:31:15;6.53;;;2.03;;
9563;SDS011;4820;50.870;4.702;2024-03-25T14:33:41;9.45;;;2.45;;
9563;SDS011;4820;50.870;4.702;2024-03-25T14:36:06;4.68;;;2.30;;
9563;SDS011;4820;50.870;4.702;2024-03-25T14:38:32;4.95;;;1.90;;
9563;SDS011;4820;50.870;4.702;2024-03-25T14:40:59;2.92;;;2.17;;
9563;SDS011;4820;50.870;4.702;2024-03-25T14:43:26;2.35;;;1.77;;
9563;SDS011;4820;50.870;4.702;2024-03-25T14:45:52;3.03;;;2.00;;
9563;SDS011;4820;50.870;4.702;2024-03-25T14:48:18;2.85;;;1.67;;
9563;SDS011;4820;50.870;4.702;2024-03-25T14:50:44;4.18;;;1.67;;
9563;SDS011;4820;50.870;4.702;2024-03-25T14:53:10;2.10;;;1.67;;
9563;SDS011;4820;50.870;4.702;2024-03-25T14:55:36;3.03;;;1.70;;
9563;SDS011;4820;50.870;4.702;2024-03-25T14:58:01;1.95;;;1.40;;
9563;SDS011;4820;50.870;4.702;2024-03-25T15:00:27;2.47;;;1.60;;
9563;SDS011;4820;50.870;4.702;2024-03-25T15:02:54;3.15;;;1.67;;
9563;SDS011;4820;50.870;4.702;2024-03-25T15:05:20;2.95;;;1.73;;
9563;SDS011;4820;50.870;4.702;2024-03-25T15:07:46;1.73;;;1.40;;
9563;SDS011;4820;50.870;4.702;2024-03-25T15:10:12;2.65;;;1.50;;
9563;SDS011;4820;50.870;4.702;2024-03-25T15:12:38;2.67;;;1.60;;